Time;durP1;ratioP1;P1;durP2;ratioP2;P2;SDS_P1;SDS_P2;PMS_P1;PMS_P2;Temp;Humidity;BMP_temperature;BMP_pressure;BME280_temperature;BME280_humidity;BME280_pressure;Samples;Min_cycle;Max_cycle;Signal;HPM_P1;HPM_P2
2022/08/30 00:02:20;;;;;;;7.63;5.10;;;;;;;15.09;70.73;100549.53;30982875;28;97725;-59
2022/08/30 00:17:21;;;;;;;9.40;5.30;;;;;;;14.81;71.11;100547.56;30981409;28;97412;-59
2022/08/30 00:32:22;;;;;;;10.60;5.93;;;;;;;14.48;71.85;100553.34;30979635;28;96771;-59
2022/08/30 00:47:22;;;;;;;9.57;5.67;;;;;;;14.39;72.73;100554.47;30977303;28;97012;-59
2022/08/30 01:02:25;;;;;;;10.63;6.75;;;;;;;14.04;73.20;100543.50;30977842;28;97879;-59
2022/08/30 01:17:26;;;;;;;15.20;8.50;;;;;;;13.75;74.05;100539.78;30976021;28;97492;-59
2022/08/30 01:32:28;;;;;;;15.27;9.50;;;;;;;13.64;74.84;100545.56;30974955;28;96867;-59
2022/08/30 01:47:28;;;;;;;13.17;8.97;;;;;;;13.43;75.51;100552.44;30985318;28;96950;-59
2022/08/30 02:02:29;;;;;;;13.07;7.07;;;;;;;13.21;76.29;100560.25;30993924;28;96809;-59
2022/08/30 02:17:29;;;;;;;16.48;6.40;;;;;;;13.39;77.31;100553.00;30992738;28;97332;-59
2022/08/30 02:32:29;;;;;;;11.07;6.13;;;;;;;13.96;77.52;100559.66;30991274;28;96647;-60
2022/08/30 02:47:30;;;;;;;15.45;7.28;;;;;;;14.37;77.05;100565.38;30989114;28;96775;-60
2022/08/30 03:02:31;;;;;;;16.27;7.17;;;;;;;14.78;76.71;100558.69;30985880;28;97405;-60
2022/08/30 03:17:32;;;;;;;12.10;7.15;;;;;;;15.09;76.14;100567.47;30983745;28;117022;-60
2022/08/30 03:32:33;;;;;;;12.88;6.45;;;;;;;15.30;75.87;100566.66;30981923;28;98332;-59
2022/08/30 03:47:33;;;;;;;10.83;6.33;;;;;;;15.35;75.46;100569.56;30980757;28;97049;-60
2022/08/30 04:02:33;;;;;;;11.85;6.30;;;;;;;15.49;75.52;100568.69;30977705;28;96649;-59
2022/08/30 04:17:34;;;;;;;12.18;5.90;;;;;;;15.71;75.08;100582.09;30978202;28;100332;-60
2022/08/30 04:32:35;;;;;;;10.45;6.22;;;;;;;15.86;75.06;100593.59;30976315;28;96709;-60
2022/08/30 04:47:36;;;;;;;10.47;7.27;;;;;;;16.35;74.58;100597.22;30956301;28;97978;-59
2022/08/30 05:02:38;;;;;;;12.90;6.90;;;;;;;16.82;73.48;100610.88;30958234;28;97861;-59
2022/08/30 05:17:38;;;;;;;;;;;;;;;17.03;72.75;100618.03;30964766;28;97577;-59
2022/08/30 05:32:40;;;;;;;11.38;6.53;;;;;;;17.18;72.28;100623.25;30981803;28;96780;-58
2022/08/30 05:47:40;;;;;;;13.73;7.37;;;;;;;17.37;71.89;100631.56;30978395;28;98092;-59
2022/08/30 06:02:41;;;;;;;16.90;8.80;;;;;;;17.86;71.04;100630.34;30977249;28;97768;-60
2022/08/30 06:17:41;;;;;;;13.30;7.97;;;;;;;18.06;70.14;100635.78;30968305;28;97939;-60
2022/08/30 06:32:41;;;;;;;18.83;7.53;;;;;;;18.52;70.10;100641.28;30971596;28;98338;-58
2022/08/30 06:47:42;;;;;;;15.23;8.00;;;;;;;18.76;68.35;100645.97;30972135;28;96832;-60
2022/08/30 07:02:42;;;;;;;13.57;7.70;;;;;;;19.29;67.68;100660.31;30968215;28;97466;-58
2022/08/30 07:33:03;;;;;;;11.30;7.30;;;;;;;21.43;64.93;100681.78;30966114;28;98770;-60
2022/08/30 07:48:04;;;;;;;11.63;6.73;;;;;;;23.28;62.06;100683.34;30925585;28;98409;-63
2022/08/30 08:03:06;;;;;;;12.57;6.23;;;;;;;23.64;59.05;100694.84;30934097;28;98314;-60
2022/08/30 08:18:07;;;;;;;5.93;4.30;;;;;;;23.14;57.81;100695.56;30941042;28;98164;-63
2022/08/30 08:33:08;;;;;;;5.75;3.30;;;;;;;25.52;56.18;100706.25;30972547;28;98321;-61
2022/08/30 08:48:33;;;;;;;5.47;2.80;;;;;;;26.95;50.69;100713.81;30937057;28;96758;-61
2022/08/30 09:03:34;;;;;;;5.47;2.90;;;;;;;25.75;49.41;100712.44;30896174;28;96910;-61
2022/08/30 09:18:41;;;;;;;4.00;2.07;;;;;;;28.58;44.12;100709.84;30880465;28;97419;-62
2022/08/30 09:34:02;;;;;;;3.83;1.83;;;;;;;37.39;33.62;100711.53;30849420;28;96973;-62
2022/08/30 09:49:26;;;;;;;2.90;1.80;;;;;;;33.55;32.01;100696.56;30833751;28;97382;-63
2022/08/30 10:04:31;;;;;;;4.67;1.60;;;;;;;36.54;28.75;100687.56;30853073;28;97442;-64
2022/08/30 10:19:52;;;;;;;1.93;1.17;;;;;;;38.56;25.97;100679.03;30862723;28;96912;-64
2022/08/30 10:35:01;;;;;;;2.37;1.60;;;;;;;45.26;17.97;100683.78;30860479;28;96740;-63
2022/08/30 10:50:13;;;;;;;3.53;2.00;;;;;;;34.77;27.68;100678.97;30861113;28;96978;-62
2022/08/30 11:05:45;;;;;;;3.20;2.03;;;;;;;33.38;30.11;100667.69;30912962;28;98158;-62
2022/08/30 11:21:13;;;;;;;4.43;1.60;;;;;;;33.56;29.54;100667.81;30918194;28;97422;-61
2022/08/30 11:36:30;;;;;;;3.47;1.60;;;;;;;39.13;23.44;100650.50;30913704;28;98568;-62
2022/08/30 11:51:44;;;;;;;2.87;1.40;;;;;;;37.90;23.73;100641.09;30945360;28;97487;-61
2022/08/30 12:06:47;;;;;;;3.10;1.50;;;;;;;35.70;26.14;100630.59;30973535;28;96911;-62
2022/08/30 12:21:56;;;;;;;3.20;1.80;;;;;;;32.80;29.56;100635.34;30965835;28;97545;-62
2022/08/30 12:37:06;;;;;;;6.30;2.17;;;;;;;32.60;30.00;100614.50;30858037;28;97157;-61
2022/08/30 12:52:17;;;;;;;2.60;1.37;;;;;;;32.50;28.10;100601.75;30836547;28;97172;-61
2022/08/30 13:07:23;;;;;;;2.30;1.00;;;;;;;32.48;27.81;100582.75;30855625;28;96996;-67
2022/08/30 13:22:24;;;;;;;2.23;1.27;;;;;;;31.85;27.79;100573.22;30867476;28;97545;-64
2022/08/30 13:37:25;;;;;;;2.55;1.27;;;;;;;31.58;28.60;100549.19;30853349;28;96771;-63
2022/08/30 13:52:25;;;;;;;5.37;1.30;;;;;;;31.06;27.99;100533.59;30896216;28;98052;-62
2022/08/30 14:07:26;;;;;;;2.70;1.30;;;;;;;30.43;29.35;100537.47;30987059;28;97137;-64
2022/08/30 14:22:26;;;;;;;4.10;1.50;;;;;;;29.78;27.80;100534.09;30986643;28;97429;-63
2022/08/30 14:37:26;;;;;;;2.22;1.20;;;;;;;28.78;28.81;100523.41;30984540;28;98630;-62
2022/08/30 14:52:28;;;;;;;1.85;1.30;;;;;;;28.42;30.30;100520.88;30982523;28;97380;-64
2022/08/30 15:07:28;;;;;;;1.80;1.23;;;;;;;27.68;31.95;100502.22;30983613;28;97474;-62
2022/08/30 15:22:28;;;;;;;4.15;1.20;;;;;;;26.87;32.29;100506.59;30908232;28;96868;-66
2022/08/30 15:37:29;;;;;;;6.70;1.60;;;;;;;26.17;33.41;100502.28;30855975;28;96835;-61
2022/08/30 15:52:30;;;;;;;2.75;1.50;;;;;;;25.56;36.47;100499.22;30853020;28;96694;-63
2022/08/30 16:07:31;;;;;;;3.80;1.57;;;;;;;24.79;39.17;100488.50;30865753;28;97350;-63
2022/08/30 16:22:31;;;;;;;4.20;1.77;;;;;;;24.37;40.86;100486.41;30910999;28;96978;-62
2022/08/30 16:37:31;;;;;;;3.60;2.03;;;;;;;24.17;41.69;100485.09;30901204;28;105515;-64
2022/08/30 16:52:32;;;;;;;3.13;1.70;;;;;;;23.44;43.26;100487.88;30906596;28;96795;-64
2022/08/30 17:07:32;;;;;;;5.45;1.50;;;;;;;22.94;45.17;100501.19;30939517;28;98622;-64
2022/08/30 17:22:33;;;;;;;;;;;;;;;22.42;46.63;100512.19;30988008;28;97537;-64
2022/08/30 17:37:33;;;;;;;4.85;1.67;;;;;;;21.92;47.60;100517.06;30988919;28;97183;-68
2022/08/30 17:52:34;;;;;;;4.10;1.73;;;;;;;21.36;49.42;100542.84;30988159;28;97111;-62
2022/08/30 18:07:35;;;;;;;4.47;1.95;;;;;;;21.00;51.19;100559.03;30988951;28;97107;-64
2022/08/30 18:22:35;;;;;;;4.43;1.60;;;;;;;20.60;52.53;100570.38;30986295;28;97387;-61
2022/08/30 18:37:35;;;;;;;3.93;1.90;;;;;;;20.08;54.06;100570.72;30987499;28;96830;-63
2022/08/30 18:52:36;;;;;;;2.95;1.98;;;;;;;19.52;55.58;100583.25;30985810;28;96793;-60
2022/08/30 19:07:36;;;;;;;5.50;2.40;;;;;;;19.02;57.14;100578.63;30908752;28;97439;-59
2022/08/30 19:22:37;;;;;;;6.00;2.65;;;;;;;18.65;58.54;100584.59;30911575;28;109236;-60
2022/08/30 19:37:38;;;;;;;4.60;2.13;;;;;;;18.34;60.04;100588.03;30902512;28;96746;-60
2022/08/30 19:52:39;;;;;;;8.00;2.50;;;;;;;18.16;61.34;100592.22;30910069;28;97150;-60
2022/08/30 20:07:39;;;;;;;6.05;3.13;;;;;;;18.27;62.06;100599.66;30908705;28;97227;-59
2022/08/30 20:22:40;;;;;;;8.27;3.30;;;;;;;18.09;62.44;100594.09;30869089;28;96775;-60
2022/08/30 20:37:42;;;;;;;4.82;2.50;;;;;;;17.71;63.45;100589.34;30851874;28;97092;-61
2022/08/30 20:52:42;;;;;;;3.80;2.40;;;;;;;17.34;64.47;100587.03;30849670;28;97494;-61
2022/08/30 21:07:44;;;;;;;7.00;3.08;;;;;;;17.13;65.48;100612.25;30850289;28;97084;-60
2022/08/30 21:22:45;;;;;;;3.67;2.33;;;;;;;16.95;66.10;100612.84;30850510;28;96615;-62
2022/08/30 21:37:45;;;;;;;5.65;3.30;;;;;;;16.83;66.97;100609.03;30960525;28;96663;-61
2022/08/30 21:52:45;;;;;;;4.57;2.40;;;;;;;16.98;67.54;100614.31;30972496;28;97343;-61
2022/08/30 22:07:46;;;;;;;3.33;2.00;;;;;;;16.94;67.72;100619.25;30989986;28;97389;-61
2022/08/30 22:22:46;;;;;;;5.50;2.45;;;;;;;16.81;68.06;100603.84;30991078;28;97117;-60
2022/08/30 22:37:48;;;;;;;3.83;2.40;;;;;;;16.66;68.50;100605.84;30989967;28;112751;-62
2022/08/30 22:52:48;;;;;;;;;;;;;;;16.76;69.07;100606.31;30990477;28;96835;-61
2022/08/30 23:07:50;;;;;;;8.07;2.40;;;;;;;16.81;68.97;100619.97;30990315;28;97269;-61
